createdAt,value
2019-02-11T00:00:42.139Z,1.10
2019-02-11T00:03:08.855Z,1.10
2019-02-11T00:05:36.661Z,1.13
2019-02-11T00:08:03.498Z,1.10
2019-02-11T00:10:30.122Z,1.10
2019-02-11T00:12:57.069Z,1.40
2019-02-11T00:15:23.821Z,1.47
2019-02-11T00:17:50.579Z,1.30
2019-02-11T00:20:17.325Z,1.53
2019-02-11T00:22:44.365Z,1.37
2019-02-11T00:25:11.329Z,1.17
2019-02-11T00:27:38.040Z,1.10
2019-02-11T00:30:04.598Z,1.13
2019-02-11T00:32:31.431Z,0.97
2019-02-11T00:34:59.252Z,1.27
2019-02-11T00:37:26.441Z,1.07
2019-02-11T00:39:53.171Z,1.60
2019-02-11T00:42:20.025Z,0.83
2019-02-11T00:44:49.045Z,0.90
2019-02-11T00:47:15.714Z,0.97
2019-02-11T00:49:43.613Z,0.90
2019-02-11T00:52:10.237Z,1.20
2019-02-11T00:54:40.471Z,0.80
2019-02-11T00:57:07.371Z,0.80
2019-02-11T00:59:36.363Z,1.10
2019-02-11T01:02:03.051Z,0.90
2019-02-11T01:04:29.854Z,1.00
2019-02-11T01:06:56.799Z,0.90
2019-02-11T01:09:24.891Z,0.90
2019-02-11T01:11:51.629Z,1.17
2019-02-11T01:14:18.623Z,1.23
2019-02-11T01:16:45.547Z,0.80
2019-02-11T01:19:12.306Z,1.13
2019-02-11T01:21:39.152Z,1.00
2019-02-11T01:24:05.797Z,0.90
2019-02-11T01:26:33.816Z,1.57
2019-02-11T01:29:00.422Z,1.07
2019-02-11T01:31:27.392Z,1.00
2019-02-11T01:33:56.340Z,0.70
2019-02-11T01:36:23.202Z,1.00
2019-02-11T01:38:50.026Z,1.20
2019-02-11T01:41:18.488Z,0.90
2019-02-11T01:43:45.120Z,0.90
2019-02-11T01:46:11.868Z,0.63
2019-02-11T01:48:38.694Z,1.20
2019-02-11T01:51:05.359Z,0.80
2019-02-11T01:53:33.960Z,1.00
2019-02-11T01:56:01.796Z,1.20
2019-02-11T01:58:28.538Z,1.03
2019-02-11T02:00:55.332Z,0.87
2019-02-11T02:03:21.960Z,1.10
2019-02-11T02:05:48.814Z,1.13
2019-02-11T02:08:16.672Z,1.30
2019-02-11T02:10:43.518Z,0.90
2019-02-11T02:13:10.105Z,1.07
2019-02-11T02:15:36.703Z,0.80
2019-02-11T02:18:03.308Z,1.23
2019-02-11T02:20:30.074Z,1.13
2019-02-11T02:22:56.903Z,1.07
2019-02-11T02:25:23.749Z,0.83
2019-02-11T02:27:50.497Z,0.97
2019-02-11T02:30:17.607Z,0.87
2019-02-11T02:32:44.393Z,1.00
2019-02-11T02:35:12.213Z,0.90
2019-02-11T02:37:39.099Z,1.10
2019-02-11T02:40:05.939Z,0.70
2019-02-11T02:42:34.754Z,0.97
2019-02-11T02:45:02.125Z,0.80
2019-02-11T02:47:29.099Z,0.70
2019-02-11T02:49:56.266Z,0.90
2019-02-11T02:52:22.907Z,1.00
2019-02-11T02:54:49.738Z,1.00
2019-02-11T02:57:16.489Z,1.13
2019-02-11T02:59:44.538Z,1.00
2019-02-11T03:02:11.163Z,0.90
2019-02-11T03:04:37.775Z,1.13
2019-02-11T03:07:04.519Z,1.13
2019-02-11T03:09:31.187Z,0.80
2019-02-11T03:11:57.858Z,1.10
2019-02-11T03:14:26.360Z,0.90
2019-02-11T03:16:52.967Z,1.30
2019-02-11T03:19:19.664Z,0.73
2019-02-11T03:21:47.764Z,0.80
2019-02-11T03:24:16.456Z,1.10
2019-02-11T03:26:42.922Z,0.87
2019-02-11T03:29:09.624Z,1.27
2019-02-11T03:31:36.375Z,1.00
2019-02-11T03:34:04.188Z,0.93
2019-02-11T03:36:30.843Z,1.00
2019-02-11T03:38:57.564Z,0.90
2019-02-11T03:41:24.320Z,0.93
2019-02-11T03:43:51.694Z,1.00
2019-02-11T03:46:18.460Z,1.10
2019-02-11T03:48:45.314Z,1.20
2019-02-11T03:51:13.122Z,0.97
2019-02-11T03:53:39.734Z,1.00
2019-02-11T03:56:06.502Z,0.93
2019-02-11T03:58:33.222Z,1.00
2019-02-11T04:01:00.130Z,0.90
2019-02-11T04:03:26.933Z,1.00
2019-02-11T04:05:53.993Z,0.60
2019-02-11T04:08:20.689Z,1.10
2019-02-11T04:10:47.400Z,0.77
2019-02-11T04:13:14.030Z,0.77
2019-02-11T04:15:40.760Z,1.10
2019-02-11T04:18:07.430Z,1.03
2019-02-11T04:20:34.236Z,0.80
2019-02-11T04:23:01.464Z,1.00
2019-02-11T04:25:28.578Z,0.97
2019-02-11T04:27:55.416Z,0.90
2019-02-11T04:30:22.292Z,1.30
2019-02-11T04:32:50.035Z,1.13
2019-02-11T04:35:16.923Z,1.03
2019-02-11T04:37:43.660Z,1.10
2019-02-11T04:40:10.605Z,0.80
2019-02-11T04:42:37.476Z,0.97
2019-02-11T04:45:04.304Z,1.00
2019-02-11T04:47:32.930Z,0.83
2019-02-11T04:50:01.609Z,1.00
2019-02-11T04:52:28.535Z,1.10
2019-02-11T04:54:55.244Z,1.13
2019-02-11T04:57:21.965Z,0.80
2019-02-11T04:59:48.612Z,1.10
2019-02-11T05:02:15.469Z,1.30
2019-02-11T05:04:42.057Z,1.10
2019-02-11T05:07:08.742Z,0.90
2019-02-11T05:09:35.434Z,1.13
2019-02-11T05:12:02.237Z,1.27
2019-02-11T05:14:28.977Z,1.23
2019-02-11T05:16:57.220Z,1.13
2019-02-11T05:19:23.821Z,1.10
2019-02-11T05:21:50.525Z,1.27
2019-02-11T05:24:17.365Z,1.00
2019-02-11T05:26:44.241Z,1.03
2019-02-11T05:29:10.987Z,1.07
2019-02-11T05:31:37.793Z,0.90
2019-02-11T05:34:05.137Z,0.93
2019-02-11T05:36:33.405Z,1.00
2019-02-11T05:39:00.035Z,1.13
2019-02-11T05:41:26.725Z,1.10
2019-02-11T05:43:53.348Z,1.20
2019-02-11T05:46:20.074Z,1.00
2019-02-11T05:48:46.833Z,1.40
2019-02-11T05:51:13.546Z,1.10
2019-02-11T05:53:40.494Z,1.13
2019-02-11T05:56:07.287Z,1.10
2019-02-11T05:58:34.328Z,1.23
2019-02-11T06:01:01.109Z,1.20
2019-02-11T06:03:27.900Z,1.00
2019-02-11T06:05:54.518Z,1.33
2019-02-11T06:08:21.232Z,1.13
2019-02-11T06:10:47.935Z,1.10
2019-02-11T06:13:14.750Z,1.00
2019-02-11T06:18:21.206Z,1.57
2019-02-11T06:20:47.844Z,1.47
2019-02-11T06:23:14.547Z,1.40
2019-02-11T06:25:41.344Z,1.53
2019-02-11T06:28:07.977Z,1.60
2019-02-11T06:30:34.688Z,1.53
2019-02-11T06:33:01.285Z,1.60
2019-02-11T06:35:28.260Z,1.50
2019-02-11T06:37:54.848Z,1.90
2019-02-11T06:40:22.138Z,1.80
2019-02-11T06:42:49.302Z,2.00
2019-02-11T06:45:18.180Z,1.80
2019-02-11T06:47:45.088Z,1.90
2019-02-11T06:50:13.632Z,2.37
2019-02-11T06:52:40.446Z,1.97
2019-02-11T06:55:08.726Z,1.93
2019-02-11T06:57:35.540Z,2.00
2019-02-11T07:00:02.260Z,1.60
2019-02-11T07:02:29.966Z,1.73
2019-02-11T07:04:56.716Z,1.50
2019-02-11T07:07:23.661Z,1.80
2019-02-11T07:09:50.387Z,1.40
2019-02-11T07:12:18.109Z,1.80
2019-02-11T07:14:46.530Z,1.63
2019-02-11T07:17:13.170Z,1.63
2019-02-11T07:19:39.931Z,2.07
2019-02-11T07:22:06.683Z,1.40
2019-02-11T07:24:33.563Z,1.80
2019-02-11T07:27:00.182Z,1.73
2019-02-11T07:29:26.829Z,1.73
2019-02-11T07:31:53.876Z,2.10
2019-02-11T07:34:20.686Z,2.10
2019-02-11T07:36:47.735Z,2.13
2019-02-11T07:39:14.415Z,2.00
2019-02-11T07:41:59.547Z,2.40
2019-02-11T07:44:39.395Z,2.27
2019-02-11T07:47:06.283Z,1.80
2019-02-11T07:49:33.380Z,2.10
2019-02-11T07:52:00.017Z,2.43
2019-02-11T07:54:28.107Z,2.40
2019-02-11T07:56:55.811Z,2.20
2019-02-11T07:59:22.617Z,2.00
2019-02-11T08:01:49.455Z,2.50
2019-02-11T08:04:16.205Z,2.10
2019-02-11T08:06:43.045Z,1.73
2019-02-11T08:09:16.717Z,2.20
2019-02-11T08:11:43.554Z,2.27
2019-02-11T08:14:10.357Z,1.93
2019-02-11T08:16:37.073Z,2.20
2019-02-11T08:19:03.855Z,2.80
2019-02-11T08:21:30.677Z,2.20
2019-02-11T08:23:57.503Z,2.00
2019-02-11T08:26:24.239Z,2.40
2019-02-11T08:28:50.875Z,1.93
2019-02-11T08:31:17.643Z,2.30
2019-02-11T08:33:45.364Z,2.50
2019-02-11T08:36:12.128Z,1.97
2019-02-11T08:38:39.482Z,1.90
2019-02-11T08:41:07.224Z,1.80
2019-02-11T08:43:34.320Z,1.83
2019-02-11T08:46:01.344Z,1.57
2019-02-11T08:48:28.091Z,1.80
2019-02-11T08:50:55.934Z,2.17
2019-02-11T08:53:23.026Z,1.80
2019-02-11T08:55:49.660Z,1.93
2019-02-11T08:58:16.315Z,2.03
2019-02-11T09:00:43.104Z,1.70
2019-02-11T09:03:11.930Z,1.60
2019-02-11T09:05:38.656Z,2.43
2019-02-11T09:08:06.620Z,2.00
2019-02-11T09:10:33.312Z,1.77
2019-02-11T09:13:00.307Z,2.07
2019-02-11T09:15:28.284Z,1.73
2019-02-11T09:17:55.056Z,1.70
2019-02-11T09:20:21.730Z,1.80
2019-02-11T09:22:48.404Z,1.80
2019-02-11T09:25:15.281Z,1.70
2019-02-11T09:27:43.472Z,1.57
2019-02-11T09:30:10.190Z,1.73
2019-02-11T09:32:37.107Z,1.70
2019-02-11T09:35:04.980Z,1.67
2019-02-11T09:37:31.610Z,2.13
2019-02-11T09:39:58.950Z,1.67
2019-02-11T09:42:25.696Z,2.10
2019-02-11T09:44:52.397Z,1.70
2019-02-11T09:47:19.189Z,1.57
2019-02-11T09:49:47.935Z,2.03
2019-02-11T09:52:14.512Z,1.80
2019-02-11T09:54:41.472Z,2.03
2019-02-11T09:57:08.316Z,1.80
2019-02-11T09:59:35.055Z,2.20
2019-02-11T10:02:01.966Z,2.37
2019-02-11T10:04:28.569Z,2.10
2019-02-11T10:06:55.669Z,1.93
2019-02-11T10:09:22.433Z,2.37
2019-02-11T10:11:50.659Z,1.93
2019-02-11T10:14:17.473Z,1.67
2019-02-11T10:16:44.525Z,2.23
2019-02-11T10:19:11.217Z,2.27
2019-02-11T10:21:39.702Z,2.00
2019-02-11T10:24:07.106Z,1.93
2019-02-11T10:26:34.275Z,2.10
2019-02-11T10:29:01.293Z,1.93
2019-02-11T10:31:27.927Z,1.80
2019-02-11T10:33:54.631Z,1.87
2019-02-11T10:36:21.407Z,2.20
2019-02-11T10:38:49.065Z,2.07
2019-02-11T10:41:15.759Z,1.93
2019-02-11T10:43:42.465Z,1.70
2019-02-11T10:46:09.090Z,1.83
2019-02-11T10:48:35.757Z,1.83
2019-02-11T10:51:02.581Z,2.23
2019-02-11T10:53:29.317Z,2.23
2019-02-11T10:55:56.117Z,1.80
2019-02-11T10:58:22.973Z,1.87
2019-02-11T11:00:49.838Z,2.13
2019-02-11T11:03:16.604Z,1.47
2019-02-11T11:05:43.663Z,1.87
2019-02-11T11:08:10.267Z,1.80
2019-02-11T11:10:37.007Z,1.93
2019-02-11T11:13:03.634Z,1.97
2019-02-11T11:15:30.617Z,2.10
2019-02-11T11:17:57.355Z,2.03
2019-02-11T11:20:23.980Z,2.40
2019-02-11T11:22:52.487Z,1.87
2019-02-11T11:25:19.310Z,2.00
2019-02-11T11:27:45.867Z,2.00
2019-02-11T11:30:12.900Z,1.50
2019-02-11T11:32:39.651Z,2.20
2019-02-11T11:35:06.373Z,1.70
2019-02-11T11:37:34.996Z,1.87
2019-02-11T11:40:01.922Z,1.70
2019-02-11T11:42:28.656Z,2.00
2019-02-11T11:44:55.467Z,1.73
2019-02-11T11:47:22.204Z,1.63
2019-02-11T11:49:50.306Z,1.80
2019-02-11T11:52:17.073Z,1.70
2019-02-11T11:54:44.198Z,1.97
2019-02-11T11:57:10.929Z,1.87
2019-02-11T11:59:37.557Z,1.43
2019-02-11T12:02:04.624Z,1.57
2019-02-11T12:04:31.930Z,2.30
2019-02-11T12:07:05.040Z,1.87
2019-02-11T12:09:33.595Z,1.90
2019-02-11T12:12:00.224Z,1.60
2019-02-11T12:14:28.366Z,1.40
2019-02-11T12:17:02.294Z,1.80
2019-02-11T12:19:24.746Z,1.90
2019-02-11T12:21:51.432Z,1.83
2019-02-11T12:24:18.274Z,1.90
2019-02-11T12:26:46.820Z,1.90
2019-02-11T12:29:13.730Z,2.07
2019-02-11T12:31:40.452Z,1.90
2019-02-11T12:34:07.458Z,1.90
2019-02-11T12:36:35.213Z,1.53
2019-02-11T12:39:01.986Z,1.77
2019-02-11T12:41:28.776Z,1.60
2019-02-11T12:43:55.497Z,1.73
2019-02-11T12:46:22.253Z,1.50
2019-02-11T12:48:49.103Z,1.80
2019-02-11T12:51:15.843Z,2.33
2019-02-11T12:53:42.597Z,2.10
2019-02-11T12:56:09.444Z,1.80
2019-02-11T12:58:36.057Z,2.00
2019-02-11T13:01:04.057Z,1.77
2019-02-11T13:03:30.626Z,2.13
2019-02-11T13:05:58.435Z,2.13
2019-02-11T13:08:25.525Z,2.07
2019-02-11T13:10:53.389Z,1.83
2019-02-11T13:13:20.170Z,2.17
2019-02-11T13:16:00.033Z,1.70
2019-02-11T13:18:16.016Z,2.00
2019-02-11T13:20:43.179Z,1.93
2019-02-11T13:23:09.976Z,1.97
2019-02-11T13:25:36.725Z,1.93
2019-02-11T13:28:03.432Z,1.77
2019-02-11T13:30:30.260Z,1.97
2019-02-11T13:32:57.223Z,2.40
2019-02-11T13:35:23.945Z,1.70
2019-02-11T13:37:54.765Z,1.80
2019-02-11T13:40:19.772Z,2.17
2019-02-11T13:42:46.806Z,1.73
2019-02-11T13:45:14.917Z,1.67
2019-02-11T13:47:53.795Z,1.80
2019-02-11T13:50:12.791Z,1.60
2019-02-11T13:52:39.393Z,1.53
2019-02-11T13:55:08.067Z,2.00
2019-02-11T13:57:34.876Z,1.70
2019-02-11T14:00:01.583Z,1.67
2019-02-11T14:02:28.238Z,1.90
2019-02-11T14:04:55.514Z,1.53
2019-02-11T14:07:22.311Z,1.80
2019-02-11T14:09:49.300Z,1.67
2019-02-11T14:12:16.714Z,1.53
2019-02-11T14:14:43.817Z,1.60
2019-02-11T14:17:10.446Z,1.93
2019-02-11T14:19:37.204Z,2.23
2019-02-11T14:22:06.728Z,2.07
2019-02-11T14:24:33.417Z,1.80
2019-02-11T14:27:00.030Z,1.40
2019-02-11T14:29:26.661Z,1.70
2019-02-11T14:31:53.467Z,1.63
2019-02-11T14:34:20.715Z,2.40
2019-02-11T14:36:47.537Z,2.03
2019-02-11T14:39:14.591Z,1.57
2019-02-11T14:41:43.016Z,1.73
2019-02-11T14:44:13.233Z,2.03
2019-02-11T14:46:38.951Z,2.10
2019-02-11T14:49:05.731Z,1.60
2019-02-11T14:51:34.379Z,1.90
2019-02-11T14:54:01.287Z,1.90
2019-02-11T14:56:28.143Z,1.47
2019-02-11T14:58:54.937Z,1.27
2019-02-11T15:01:21.816Z,1.80
2019-02-11T15:03:48.839Z,1.70
2019-02-11T15:06:15.590Z,1.33
2019-02-11T15:08:42.543Z,1.60
2019-02-11T15:11:11.311Z,1.70
2019-02-11T15:13:38.251Z,1.63
2019-02-11T15:16:05.103Z,1.83
2019-02-11T15:18:34.351Z,1.57
2019-02-11T15:21:00.378Z,1.50
2019-02-11T15:23:26.995Z,1.30
2019-02-11T15:25:53.608Z,1.50
2019-02-11T15:28:20.376Z,1.70
2019-02-11T15:30:47.163Z,1.30
2019-02-11T15:33:14.477Z,1.40
2019-02-11T15:35:41.449Z,1.77
2019-02-11T15:38:08.248Z,1.43
2019-02-11T15:40:35.198Z,1.40
2019-02-11T15:43:02.912Z,1.40
2019-02-11T15:45:30.035Z,1.70
2019-02-11T15:47:56.978Z,1.30
2019-02-11T15:50:23.649Z,1.53
2019-02-11T15:52:50.425Z,1.60
2019-02-11T15:55:18.250Z,1.30
2019-02-11T15:57:44.855Z,1.43
2019-02-11T16:00:13.412Z,1.27
2019-02-11T16:02:44.452Z,1.37
2019-02-11T16:05:16.116Z,1.23
2019-02-11T16:07:39.905Z,1.30
2019-02-11T16:10:06.759Z,1.23
2019-02-11T16:12:35.640Z,1.23
2019-02-11T16:15:02.239Z,1.30
2019-02-11T16:17:29.137Z,1.10
2019-02-11T16:19:56.182Z,1.37
2019-02-11T16:22:23.251Z,1.40
2019-02-11T16:24:51.400Z,1.90
2019-02-11T16:27:18.155Z,1.27
2019-02-11T16:29:46.094Z,1.17
2019-02-11T16:32:12.675Z,1.10
2019-02-11T16:34:39.332Z,1.80
2019-02-11T16:37:06.275Z,1.10
2019-02-11T16:39:33.211Z,1.30
2019-02-11T16:42:00.037Z,1.27
2019-02-11T16:44:27.174Z,0.90
2019-02-11T16:46:55.458Z,1.23
2019-02-11T16:49:22.085Z,1.30
2019-02-11T16:51:48.932Z,1.33
2019-02-11T16:54:15.677Z,1.13
2019-02-11T16:56:42.479Z,1.10
2019-02-11T16:59:09.098Z,1.07
2019-02-11T17:01:36.021Z,1.30
2019-02-11T17:06:45.866Z,0.90
2019-02-11T17:09:12.666Z,1.10
2019-02-11T17:11:39.460Z,1.17
2019-02-11T17:14:07.522Z,1.30
2019-02-11T17:16:34.442Z,1.03
2019-02-11T17:19:09.202Z,1.20
2019-02-11T17:21:30.459Z,1.37
2019-02-11T17:23:57.067Z,1.30
2019-02-11T17:26:23.967Z,1.10
2019-02-11T17:28:50.810Z,1.10
2019-02-11T17:31:17.519Z,1.30
2019-02-11T17:33:46.370Z,1.33
2019-02-11T17:36:13.121Z,1.50
2019-02-11T17:38:40.936Z,1.80
2019-02-11T17:41:07.719Z,1.70
2019-02-11T17:43:34.463Z,2.37
2019-02-11T17:46:01.221Z,1.90
2019-02-11T17:48:28.455Z,1.90
2019-02-11T17:50:55.024Z,1.80
2019-02-11T17:53:22.255Z,2.67
2019-02-11T17:55:49.102Z,2.23
2019-02-11T17:58:15.868Z,2.27
2019-02-11T18:00:47.052Z,2.37
2019-02-11T18:03:14.045Z,2.80
2019-02-11T18:05:40.891Z,2.53
2019-02-11T18:08:07.964Z,2.43
2019-02-11T18:10:36.380Z,2.83
2019-02-11T18:13:03.381Z,2.80
2019-02-11T18:15:30.540Z,2.53
2019-02-11T18:17:58.350Z,2.23
2019-02-11T18:20:24.997Z,2.90
2019-02-11T18:22:52.053Z,2.80
2019-02-11T18:25:20.708Z,2.73
2019-02-11T18:27:47.360Z,2.57
2019-02-11T18:30:14.067Z,2.83
2019-02-11T18:32:40.977Z,3.17
2019-02-11T18:35:07.826Z,2.90
2019-02-11T18:37:34.629Z,2.77
2019-02-11T18:40:01.804Z,3.23
2019-02-11T18:42:28.788Z,2.83
2019-02-11T18:44:55.451Z,2.73
2019-02-11T18:47:22.151Z,2.73
2019-02-11T18:49:51.076Z,2.67
2019-02-11T18:52:17.842Z,3.10
2019-02-11T18:54:44.614Z,2.83
2019-02-11T18:57:11.235Z,2.73
2019-02-11T18:59:37.821Z,3.60
2019-02-11T19:02:04.539Z,2.83
2019-02-11T19:04:31.188Z,2.80
2019-02-11T19:06:58.085Z,3.10
2019-02-11T19:09:25.056Z,3.07
2019-02-11T19:11:51.740Z,2.63
2019-02-11T19:14:18.506Z,2.97
2019-02-11T19:16:45.178Z,3.27
2019-02-11T19:19:12.418Z,3.33
2019-02-11T19:21:41.005Z,2.80
2019-02-11T19:24:07.869Z,3.37
2019-02-11T19:26:34.816Z,3.23
2019-02-11T19:29:01.761Z,3.33
2019-02-11T19:31:28.598Z,3.60
2019-02-11T19:33:57.223Z,3.40
2019-02-11T19:36:24.533Z,3.17
2019-02-11T19:38:51.620Z,3.50
2019-02-11T19:41:18.508Z,3.20
2019-02-11T19:43:45.187Z,3.10
2019-02-11T19:46:14.527Z,3.83
2019-02-11T19:48:42.816Z,3.33
2019-02-11T19:51:09.819Z,3.27
2019-02-11T19:53:38.157Z,3.27
2019-02-11T19:56:04.938Z,3.43
2019-02-11T19:58:31.733Z,3.10
2019-02-11T20:00:58.483Z,2.93
2019-02-11T20:03:26.882Z,3.03
2019-02-11T20:05:53.599Z,2.77
2019-02-11T20:08:22.824Z,3.00
2019-02-11T20:10:49.554Z,3.93
2019-02-11T20:13:16.399Z,3.30
2019-02-11T20:15:43.539Z,3.03
2019-02-11T20:18:10.553Z,2.83
2019-02-11T20:20:37.199Z,3.33
2019-02-11T20:23:05.248Z,3.40
2019-02-11T20:25:32.500Z,3.17
2019-02-11T20:27:59.204Z,3.03
2019-02-11T20:30:25.924Z,3.13
2019-02-11T20:32:52.686Z,3.20
2019-02-11T20:35:21.103Z,3.30
2019-02-11T20:37:49.786Z,3.07
2019-02-11T20:40:20.294Z,2.83
2019-02-11T20:42:47.158Z,4.10
2019-02-11T20:45:13.983Z,3.03
2019-02-11T20:47:43.256Z,3.33
2019-02-11T20:50:12.162Z,3.30
2019-02-11T20:52:40.886Z,3.27
2019-02-11T20:55:09.884Z,4.33
2019-02-11T20:57:38.521Z,3.50
2019-02-11T21:00:05.596Z,3.20
2019-02-11T21:02:34.098Z,3.47
2019-02-11T21:05:01.228Z,3.50
2019-02-11T21:07:27.918Z,4.30
2019-02-11T21:09:54.604Z,4.07
2019-02-11T21:12:22.467Z,4.17
2019-02-11T21:14:52.927Z,3.67
2019-02-11T21:17:19.932Z,4.17
2019-02-11T21:19:46.951Z,4.20
2019-02-11T21:22:13.706Z,3.53
2019-02-11T21:24:40.530Z,4.10
2019-02-11T21:27:07.143Z,3.70
2019-02-11T21:29:33.964Z,4.13
2019-02-11T21:32:00.786Z,4.00
2019-02-11T21:34:27.435Z,4.17
2019-02-11T21:36:54.239Z,4.33
2019-02-11T21:39:20.997Z,3.70
2019-02-11T21:41:48.122Z,3.83
2019-02-11T21:44:14.838Z,3.97
2019-02-11T21:46:41.515Z,4.03
2019-02-11T21:49:08.280Z,3.77
2019-02-11T21:51:36.033Z,4.40
2019-02-11T21:54:03.054Z,4.30
2019-02-11T21:56:29.844Z,4.23
2019-02-11T21:58:56.622Z,4.20
2019-02-11T22:01:23.341Z,4.33
2019-02-11T22:03:50.161Z,4.53
2019-02-11T22:06:17.444Z,4.13
2019-02-11T22:08:44.184Z,3.73
2019-02-11T22:11:10.919Z,4.10
2019-02-11T22:13:37.525Z,3.90
2019-02-11T22:16:04.550Z,4.10
2019-02-11T22:18:31.415Z,4.53
2019-02-11T22:20:58.414Z,4.30
2019-02-11T22:23:25.515Z,4.63
2019-02-11T22:25:52.460Z,3.93
2019-02-11T22:28:19.363Z,4.43
2019-02-11T22:30:46.073Z,3.83
2019-02-11T22:33:12.752Z,4.30
2019-02-11T22:35:39.793Z,4.47
2019-02-11T22:38:06.511Z,4.30
2019-02-11T22:40:33.342Z,3.63
2019-02-11T22:43:00.101Z,4.60
2019-02-11T22:45:27.875Z,4.33
2019-02-11T22:47:54.905Z,4.47
2019-02-11T22:50:23.535Z,3.93
2019-02-11T22:52:50.379Z,4.33
2019-02-11T22:55:19.701Z,4.33
2019-02-11T22:57:46.298Z,4.40
2019-02-11T23:00:12.928Z,4.20
2019-02-11T23:02:42.464Z,4.17
2019-02-11T23:05:09.266Z,4.17
2019-02-11T23:07:35.954Z,4.57
2019-02-11T23:10:02.601Z,3.40
2019-02-11T23:12:29.729Z,3.60
2019-02-11T23:14:57.555Z,4.20
2019-02-11T23:17:24.279Z,4.53
2019-02-11T23:19:51.401Z,4.60
2019-02-11T23:22:18.067Z,4.03
2019-02-11T23:24:44.715Z,3.80
2019-02-11T23:27:12.788Z,3.50
2019-02-11T23:29:39.328Z,3.80
2019-02-11T23:32:06.279Z,3.73
2019-02-11T23:34:32.993Z,4.13
2019-02-11T23:36:59.618Z,3.53
2019-02-11T23:39:26.633Z,4.33
2019-02-11T23:41:54.353Z,3.90
2019-02-11T23:44:22.682Z,3.37
2019-02-11T23:46:49.544Z,3.70
2019-02-11T23:49:17.294Z,4.07
2019-02-11T23:51:44.658Z,3.70
2019-02-11T23:54:11.482Z,3.80
2019-02-11T23:56:38.112Z,3.03
2019-02-11T23:59:04.726Z,3.47
